Погода Измаилна неделю

Измаильский район, Одесская область, Украина

20 - 26 июля
  • 20июля
    Сегодня
    +22°
    +32°
    Практически безоблачно
    ВремяПогодаТемператураВлажностьДавлениеВетер, м/сВероятность осадков
    00:00Ясно и безоблачно+26°C40 %757 мм4.4 м/с2 %
    03:00Ясно и безоблачно+24°C46 %756 мм3.8 м/с2 %
    06:00Ясно и безоблачно+22°C52 %756 мм3.7 м/с2 %
    09:00Ясно и безоблачно+25°C48 %756 мм2.4 м/с2 %
    12:00Практически безоблачно+30°C42 %756 мм0.7 м/с5 %
    15:00Практически безоблачно+32°C38 %755 мм0.4 м/с12 %
    18:00Практически безоблачно+31°C37 %754 мм1.6 м/с10 %
    21:00Ясно и безоблачно+28°C50 %754 мм1.6 м/с5 %
  • 21июля
    Воскресенье
    +22°
    +33°
    Облачно с прояснениями
    ВремяПогодаТемператураВлажностьДавлениеВетер, м/сВероятность осадков
    00:00Ясно и безоблачно+24°C70 %754 мм1.9 м/с2 %
    03:00Ясно и безоблачно+24°C78 %754 мм1.9 м/с2 %
    06:00Практически безоблачно+22°C68 %754 мм2.0 м/с2 %
    09:00Ясно и безоблачно+26°C45 %754 мм1.0 м/с2 %
    12:00Облачно с прояснениями+31°C32 %754 мм1.1 м/с3 %
    15:00Облачно с прояснениями+32°C29 %753 мм0.1 м/с12 %
    18:00Небольшая облачность+31°C34 %752 мм1.6 м/с14 %
    21:00Ясно и безоблачно+28°C44 %753 мм4.2 м/с6 %
  • 22июля
    Понедельник
    +22°
    +30°
    Ясно и безоблачно
    ВремяПогодаТемператураВлажностьДавлениеВетер, м/сВероятность осадков
    00:00Небольшая облачность+27°C57 %753 мм1.7 м/с14 %
    03:00Практически безоблачно+25°C66 %753 мм0.4 м/с22 %
    06:00Небольшая облачность и лёгкий дождик+23°C82 %753 мм0.6 м/с49 %
    09:00Небольшая облачность+25°C72 %754 мм0.7 м/с32 %
    12:00Практически безоблачно+28°C53 %754 мм1.7 м/с26 %
    15:00Ясно и безоблачно+30°C47 %753 мм2.7 м/с42 %
    18:00Практически безоблачно+29°C44 %753 мм2.9 м/с45 %
    21:00Практически безоблачно+27°C51 %754 мм2.6 м/с26 %
  • 23июля
    Вторник
    +20°
    +32°
    Практически безоблачно
    ВремяПогодаТемператураВлажностьДавлениеВетер, м/сВероятность осадков
    00:00Ясно и безоблачно+25°C62 %754 мм2.5 м/с5 %
    03:00Ясно и безоблачно+23°C66 %754 мм2.6 м/с8 %
    06:00Ясно и безоблачно+22°C67 %754 мм2.9 м/с10 %
    09:00Небольшая облачность+25°C51 %755 мм3.2 м/с10 %
    12:00Облачно с прояснениями+29°C37 %755 мм3.5 м/с21 %
    15:00Практически безоблачно+30°C35 %754 мм2.6 м/с37 %
    18:00Практически безоблачно+31°C34 %754 мм1.4 м/с23 %
    21:00Практически безоблачно+28°C44 %754 мм1.4 м/с6 %
  • 24июля
    Среда
    +22°
    +33°
    Облачно с прояснениями
    ВремяПогодаТемператураВлажностьДавлениеВетер, м/сВероятность осадков
    00:00Ясно и безоблачно+24°C66 %754 мм1.7 м/с2 %
    03:00Ясно и безоблачно+23°C65 %754 мм1.8 м/с2 %
    06:00Ясно и безоблачно+21°C72 %754 мм1.7 м/с2 %
    09:00Ясно и безоблачно+26°C48 %754 мм1.2 м/с2 %
    12:00Практически безоблачно+31°C35 %753 мм1.0 м/с9 %
    15:00Облачно с прояснениями+32°C31 %752 мм1.1 м/с13 %
    18:00Практически безоблачно+32°C31 %751 мм1.8 м/с16 %
    21:00Ясно и безоблачно+27°C54 %752 мм3.2 м/с13 %
Мы используем cookies
Соглашаюсь